sensor_id;sensor_type;location;lat;lon;timestamp;pressure;altitude;pressure_sealevel;temperature
74043;BMP280;62384;53.600;10.040;2022-09-28T00:02:06;99271.13;;;9.53
74043;BMP280;62384;53.600;10.040;2022-09-28T00:04:32;99250.44;;;9.50
74043;BMP280;62384;53.600;10.040;2022-09-28T00:06:58;99264.59;;;9.54
74043;BMP280;62384;53.600;10.040;2022-09-28T00:09:23;99261.53;;;9.45
74043;BMP280;62384;53.600;10.040;2022-09-28T00:11:48;99263.06;;;9.39
74043;BMP280;62384;53.600;10.040;2022-09-28T00:14:14;99260.78;;;9.48
74043;BMP280;62384;53.600;10.040;2022-09-28T00:16:42;99262.31;;;9.53
74043;BMP280;62384;53.600;10.040;2022-09-28T00:19:08;99257.75;;;9.50
74043;BMP280;62384;53.600;10.040;2022-09-28T00:21:36;99248.91;;;9.42
74043;BMP280;62384;53.600;10.040;2022-09-28T00:24:03;99254.63;;;9.44
74043;BMP280;62384;53.600;10.040;2022-09-28T00:26:53;99241.63;;;9.39
74043;BMP280;62384;53.600;10.040;2022-09-28T00:29:22;99258.06;;;9.37
74043;BMP280;62384;53.600;10.040;2022-09-28T00:31:50;99243.50;;;9.35
74043;BMP280;62384;53.600;10.040;2022-09-28T00:34:16;99255.06;;;9.50
74043;BMP280;62384;53.600;10.040;2022-09-28T00:36:43;99250.47;;;9.64
74043;BMP280;62384;53.600;10.040;2022-09-28T00:39:10;99265.03;;;9.60
74043;BMP280;62384;53.600;10.040;2022-09-28T00:41:36;99254.66;;;9.55
74043;BMP280;62384;53.600;10.040;2022-09-28T00:44:30;99249.31;;;9.51
74043;BMP280;62384;53.600;10.040;2022-09-28T00:49:38;99253.13;;;9.54
74043;BMP280;62384;53.600;10.040;2022-09-28T00:52:06;99245.09;;;9.47
74043;BMP280;62384;53.600;10.040;2022-09-28T00:54:33;99231.69;;;9.39
74043;BMP280;62384;53.600;10.040;2022-09-28T00:57:00;99244.75;;;9.59
74043;BMP280;62384;53.600;10.040;2022-09-28T00:59:26;99250.44;;;9.50
74043;BMP280;62384;53.600;10.040;2022-09-28T01:01:51;99232.84;;;9.49
74043;BMP280;62384;53.600;10.040;2022-09-28T01:04:17;99253.13;;;9.54
74043;BMP280;62384;53.600;10.040;2022-09-28T01:06:44;99250.06;;;9.55
74043;BMP280;62384;53.600;10.040;2022-09-28T01:09:11;99242.78;;;9.52
74043;BMP280;62384;53.600;10.040;2022-09-28T01:11:38;99231.69;;;9.32
74043;BMP280;62384;53.600;10.040;2022-09-28T01:14:06;99238.56;;;9.48
74043;BMP280;62384;53.600;10.040;2022-09-28T01:22:27;99217.13;;;9.33
74043;BMP280;62384;53.600;10.040;2022-09-28T01:25:02;99203.72;;;9.23
74043;BMP280;62384;53.600;10.040;2022-09-28T01:27:59;99218.59;;;9.20
74043;BMP280;62384;53.600;10.040;2022-09-28T01:30:29;99208.66;;;9.10
74043;BMP280;62384;53.600;10.040;2022-09-28T01:33:04;99196.34;;;8.99
74043;BMP280;62384;53.600;10.040;2022-09-28T01:35:35;99213.59;;;9.08
74043;BMP280;62384;53.600;10.040;2022-09-28T01:38:08;99214.75;;;9.11
74043;BMP280;62384;53.600;10.040;2022-09-28T01:40:36;99210.16;;;9.15
74043;BMP280;62384;53.600;10.040;2022-09-28T01:43:16;99204.03;;;9.11
74043;BMP280;62384;53.600;10.040;2022-09-28T01:45:51;99198.69;;;9.11
74043;BMP280;62384;53.600;10.040;2022-09-28T01:51:09;99198.66;;;9.00
74043;BMP280;62384;53.600;10.040;2022-09-28T01:53:38;99194.44;;;8.92
74043;BMP280;62384;53.600;10.040;2022-09-28T01:56:14;99188.69;;;8.97
74043;BMP280;62384;53.600;10.040;2022-09-28T01:59:06;99200.94;;;8.95
74043;BMP280;62384;53.600;10.040;2022-09-28T02:01:41;99199.38;;;8.90
74043;BMP280;62384;53.600;10.040;2022-09-28T02:04:13;99191.00;;;8.95
74043;BMP280;62384;53.600;10.040;2022-09-28T02:06:55;99184.09;;;8.84
74043;BMP280;62384;53.600;10.040;2022-09-28T02:09:29;99189.44;;;8.87
74043;BMP280;62384;53.600;10.040;2022-09-28T02:11:59;99192.50;;;8.89
74043;BMP280;62384;53.600;10.040;2022-09-28T02:14:28;99186.38;;;8.89
74043;BMP280;62384;53.600;10.040;2022-09-28T02:16:55;99185.59;;;8.85
74043;BMP280;62384;53.600;10.040;2022-09-28T02:19:23;99181.78;;;8.86
74043;BMP280;62384;53.600;10.040;2022-09-28T02:24:37;99171.06;;;8.82
74043;BMP280;62384;53.600;10.040;2022-09-28T02:27:10;99176.38;;;8.79
74043;BMP280;62384;53.600;10.040;2022-09-28T02:29:37;99174.84;;;8.77
74043;BMP280;62384;53.600;10.040;2022-09-28T02:32:02;99171.84;;;8.83
74043;BMP280;62384;53.600;10.040;2022-09-28T02:34:27;99169.94;;;8.83
74043;BMP280;62384;53.600;10.040;2022-09-28T02:36:52;99174.88;;;8.88
74043;BMP280;62384;53.600;10.040;2022-09-28T02:39:18;99166.44;;;8.79
74043;BMP280;62384;53.600;10.040;2022-09-28T02:44:48;99168.03;;;8.84
74043;BMP280;62384;53.600;10.040;2022-09-28T02:50:15;99164.19;;;8.88
74043;BMP280;62384;53.600;10.040;2022-09-28T03:01:49;99160.75;;;8.81
74043;BMP280;62384;53.600;10.040;2022-09-28T03:04:36;99172.19;;;8.81
74043;BMP280;62384;53.600;10.040;2022-09-28T03:10:02;99167.25;;;8.83
74043;BMP280;62384;53.600;10.040;2022-09-28T03:12:29;99174.13;;;8.81
74043;BMP280;62384;53.600;10.040;2022-09-28T03:15:30;99172.94;;;8.74
74043;BMP280;62384;53.600;10.040;2022-09-28T03:17:56;99176.75;;;8.66
74043;BMP280;62384;53.600;10.040;2022-09-28T03:20:23;99170.97;;;8.68
74043;BMP280;62384;53.600;10.040;2022-09-28T03:22:48;99155.69;;;8.61
74043;BMP280;62384;53.600;10.040;2022-09-28T03:25:13;99176.31;;;8.61
74043;BMP280;62384;53.600;10.040;2022-09-28T03:27:40;99177.06;;;8.61
74043;BMP280;62384;53.600;10.040;2022-09-28T03:30:05;99167.13;;;8.55
74043;BMP280;62384;53.600;10.040;2022-09-28T03:32:31;99155.59;;;8.44
74043;BMP280;62384;53.600;10.040;2022-09-28T03:34:56;99162.19;;;8.57
74043;BMP280;62384;53.600;10.040;2022-09-28T03:37:22;99160.59;;;8.52
74043;BMP280;62384;53.600;10.040;2022-09-28T03:39:48;99171.66;;;8.51
74043;BMP280;62384;53.600;10.040;2022-09-28T03:42:13;99160.97;;;8.44
74043;BMP280;62384;53.600;10.040;2022-09-28T03:44:38;99166.63;;;8.39
74043;BMP280;62384;53.600;10.040;2022-09-28T03:47:03;99163.19;;;8.38
74043;BMP280;62384;53.600;10.040;2022-09-28T03:49:30;99151.78;;;8.45
74043;BMP280;62384;53.600;10.040;2022-09-28T03:51:56;99140.28;;;8.34
74043;BMP280;62384;53.600;10.040;2022-09-28T03:54:21;99142.91;;;8.27
74043;BMP280;62384;53.600;10.040;2022-09-28T03:56:47;99163.13;;;8.24
74043;BMP280;62384;53.600;10.040;2022-09-28T03:59:12;99151.75;;;8.34
74043;BMP280;62384;53.600;10.040;2022-09-28T04:01:37;99155.13;;;8.31
74043;BMP280;62384;53.600;10.040;2022-09-28T04:04:03;99150.97;;;8.34
74043;BMP280;62384;53.600;10.040;2022-09-28T04:06:28;99157.81;;;8.31
74043;BMP280;62384;53.600;10.040;2022-09-28T04:08:53;99131.69;;;8.07
74043;BMP280;62384;53.600;10.040;2022-09-28T04:11:18;99151.28;;;8.25
74043;BMP280;62384;53.600;10.040;2022-09-28T04:13:47;99152.88;;;8.33
74043;BMP280;62384;53.600;10.040;2022-09-28T04:16:13;99152.44;;;8.31
74043;BMP280;62384;53.600;10.040;2022-09-28T04:18:38;99156.25;;;8.23
74043;BMP280;62384;53.600;10.040;2022-09-28T04:21:06;99162.38;;;8.24
74043;BMP280;62384;53.600;10.040;2022-09-28T04:23:34;99145.88;;;8.15
74043;BMP280;62384;53.600;10.040;2022-09-28T04:26:00;99112.47;;;7.87
74043;BMP280;62384;53.600;10.040;2022-09-28T04:28:25;99149.25;;;8.08
74043;BMP280;62384;53.600;10.040;2022-09-28T04:31:11;99168.44;;;8.21
74043;BMP280;62384;53.600;10.040;2022-09-28T04:33:37;99160.75;;;8.12
74043;BMP280;62384;53.600;10.040;2022-09-28T04:36:02;99141.59;;;8.06
74043;BMP280;62384;53.600;10.040;2022-09-28T04:38:28;99157.00;;;8.24
74043;BMP280;62384;53.600;10.040;2022-09-28T04:40:53;99155.06;;;8.17
74043;BMP280;62384;53.600;10.040;2022-09-28T04:43:18;99152.75;;;8.16
74043;BMP280;62384;53.600;10.040;2022-09-28T04:45:43;99155.81;;;8.14
74043;BMP280;62384;53.600;10.040;2022-09-28T04:48:09;99158.09;;;8.19
74043;BMP280;62384;53.600;10.040;2022-09-28T04:50:34;99153.88;;;8.15
74043;BMP280;62384;53.600;10.040;2022-09-28T04:53:00;99155.06;;;8.17
74043;BMP280;62384;53.600;10.040;2022-09-28T04:55:26;99159.66;;;8.20
74043;BMP280;62384;53.600;10.040;2022-09-28T04:57:56;99161.91;;;8.15
74043;BMP280;62384;53.600;10.040;2022-09-28T05:00:27;99150.47;;;8.14
74043;BMP280;62384;53.600;10.040;2022-09-28T05:02:52;99164.63;;;8.22
74043;BMP280;62384;53.600;10.040;2022-09-28T05:05:17;99150.47;;;8.18
74043;BMP280;62384;53.600;10.040;2022-09-28T05:07:43;99162.34;;;8.20
74043;BMP280;62384;53.600;10.040;2022-09-28T05:10:09;99159.25;;;8.18
74043;BMP280;62384;53.600;10.040;2022-09-28T05:12:35;99164.19;;;8.13
74043;BMP280;62384;53.600;10.040;2022-09-28T05:15:00;99163.34;;;8.01
74043;BMP280;62384;53.600;10.040;2022-09-28T05:17:26;99167.94;;;8.01
74043;BMP280;62384;53.600;10.040;2022-09-28T05:19:51;99163.72;;;8.00
74043;BMP280;62384;53.600;10.040;2022-09-28T05:22:16;99167.16;;;8.00
74043;BMP280;62384;53.600;10.040;2022-09-28T05:24:41;99166.81;;;8.05
74043;BMP280;62384;53.600;10.040;2022-09-28T05:27:07;99163.44;;;8.16
74043;BMP280;62384;53.600;10.040;2022-09-28T05:29:32;99169.53;;;8.13
74043;BMP280;62384;53.600;10.040;2022-09-28T05:31:57;99173.38;;;8.15
74043;BMP280;62384;53.600;10.040;2022-09-28T05:34:25;99170.66;;;8.12
74043;BMP280;62384;53.600;10.040;2022-09-28T05:36:50;99163.78;;;8.11
74043;BMP280;62384;53.600;10.040;2022-09-28T05:39:15;99161.13;;;8.11
74043;BMP280;62384;53.600;10.040;2022-09-28T05:41:40;99154.59;;;8.04
74043;BMP280;62384;53.600;10.040;2022-09-28T05:44:07;99157.59;;;7.99
74043;BMP280;62384;53.600;10.040;2022-09-28T05:46:32;99163.66;;;7.93
74043;BMP280;62384;53.600;10.040;2022-09-28T05:48:58;99169.56;;;8.20
74043;BMP280;62384;53.600;10.040;2022-09-28T05:51:24;99141.91;;;7.98
74043;BMP280;62384;53.600;10.040;2022-09-28T05:53:49;99155.03;;;8.14
74043;BMP280;62384;53.600;10.040;2022-09-28T05:56:14;99175.22;;;8.04
74043;BMP280;62384;53.600;10.040;2022-09-28T05:58:40;99171.66;;;7.89
74043;BMP280;62384;53.600;10.040;2022-09-28T06:01:05;99159.38;;;7.85
74043;BMP280;62384;53.600;10.040;2022-09-28T06:03:34;99168.25;;;7.96
74043;BMP280;62384;53.600;10.040;2022-09-28T06:06:00;99167.50;;;7.99
74043;BMP280;62384;53.600;10.040;2022-09-28T06:08:27;99169.88;;;8.04
74043;BMP280;62384;53.600;10.040;2022-09-28T06:10:52;99175.22;;;8.04
74043;BMP280;62384;53.600;10.040;2022-09-28T06:13:17;99170.56;;;7.97
74043;BMP280;62384;53.600;10.040;2022-09-28T06:15:42;99173.63;;;7.99
74043;BMP280;62384;53.600;10.040;2022-09-28T06:18:12;99177.88;;;8.04
74043;BMP280;62384;53.600;10.040;2022-09-28T06:20:41;99177.13;;;8.03
74043;BMP280;62384;53.600;10.040;2022-09-28T06:23:08;99157.59;;;7.99
74043;BMP280;62384;53.600;10.040;2022-09-28T06:25:33;99126.53;;;7.77
74043;BMP280;62384;53.600;10.040;2022-09-28T06:30:27;99187.94;;;8.25
74043;BMP280;62384;53.600;10.040;2022-09-28T06:32:55;99189.88;;;8.24
74043;BMP280;62384;53.600;10.040;2022-09-28T06:35:22;99144.16;;;7.89
74043;BMP280;62384;53.600;10.040;2022-09-28T06:37:48;99148.41;;;7.93
74043;BMP280;62384;53.600;10.040;2022-09-28T06:40:13;99193.69;;;8.27
74043;BMP280;62384;53.600;10.040;2022-09-28T06:42:39;99176.34;;;8.06
74043;BMP280;62384;53.600;10.040;2022-09-28T06:45:05;99209.34;;;8.28
74043;BMP280;62384;53.600;10.040;2022-09-28T06:47:31;99205.53;;;8.29
74043;BMP280;62384;53.600;10.040;2022-09-28T06:49:57;99208.97;;;8.30
74043;BMP280;62384;53.600;10.040;2022-09-28T06:52:22;99217.38;;;8.32
74043;BMP280;62384;53.600;10.040;2022-09-28T06:54:48;99226.16;;;8.29
74043;BMP280;62384;53.600;10.040;2022-09-28T06:57:13;99223.47;;;8.29
74043;BMP280;62384;53.600;10.040;2022-09-28T06:59:39;99218.50;;;8.24
74043;BMP280;62384;53.600;10.040;2022-09-28T07:02:04;99224.91;;;8.16
74043;BMP280;62384;53.600;10.040;2022-09-28T07:04:31;99217.97;;;8.07
74043;BMP280;62384;53.600;10.040;2022-09-28T07:06:56;99227.50;;;8.08
74043;BMP280;62384;53.600;10.040;2022-09-28T07:09:23;99227.94;;;8.11
74043;BMP280;62384;53.600;10.040;2022-09-28T07:11:48;99229.53;;;8.22
74043;BMP280;62384;53.600;10.040;2022-09-28T07:14:13;99226.47;;;8.20
74043;BMP280;62384;53.600;10.040;2022-09-28T07:16:39;99233.34;;;8.18
74043;BMP280;62384;53.600;10.040;2022-09-28T07:19:04;99215.41;;;8.22
74043;BMP280;62384;53.600;10.040;2022-09-28T07:21:30;99230.44;;;8.37
74043;BMP280;62384;53.600;10.040;2022-09-28T07:23:56;99252.13;;;8.32
74043;BMP280;62384;53.600;10.040;2022-09-28T07:26:21;99258.31;;;8.36
74043;BMP280;62384;53.600;10.040;2022-09-28T07:28:46;99257.19;;;8.37
74043;BMP280;62384;53.600;10.040;2022-09-28T07:31:11;99269.88;;;8.50
74043;BMP280;62384;53.600;10.040;2022-09-28T07:33:37;99263.31;;;8.41
74043;BMP280;62384;53.600;10.040;2022-09-28T07:36:02;99279.00;;;8.46
74043;BMP280;62384;53.600;10.040;2022-09-28T07:38:32;99290.16;;;8.58
74043;BMP280;62384;53.600;10.040;2022-09-28T07:40:57;99269.09;;;8.50
74043;BMP280;62384;53.600;10.040;2022-09-28T07:43:46;99290.88;;;8.52
74043;BMP280;62384;53.600;10.040;2022-09-28T07:46:11;99243.72;;;8.30
74043;BMP280;62384;53.600;10.040;2022-09-28T07:48:41;99280.56;;;8.47
74043;BMP280;62384;53.600;10.040;2022-09-28T07:51:07;99290.50;;;8.50
74043;BMP280;62384;53.600;10.040;2022-09-28T07:53:33;99290.03;;;8.41
74043;BMP280;62384;53.600;10.040;2022-09-28T07:56:01;99279.78;;;8.50
74043;BMP280;62384;53.600;10.040;2022-09-28T07:58:29;99304.25;;;8.52
74043;BMP280;62384;53.600;10.040;2022-09-28T08:00:57;99298.09;;;8.48
74043;BMP280;62384;53.600;10.040;2022-09-28T08:03:24;99293.94;;;8.47
74043;BMP280;62384;53.600;10.040;2022-09-28T08:05:50;99263.56;;;8.29
74043;BMP280;62384;53.600;10.040;2022-09-28T08:08:15;99282.13;;;8.55
74043;BMP280;62384;53.600;10.040;2022-09-28T08:10:42;99300.19;;;8.72
74043;BMP280;62384;53.600;10.040;2022-09-28T08:13:07;99300.59;;;8.74
74043;BMP280;62384;53.600;10.040;2022-09-28T08:15:33;99294.06;;;8.71
74043;BMP280;62384;53.600;10.040;2022-09-28T08:18:05;99311.44;;;8.95
74043;BMP280;62384;53.600;10.040;2022-09-28T08:20:31;99325.13;;;8.83
74043;BMP280;62384;53.600;10.040;2022-09-28T08:23:16;99324.28;;;8.72
74043;BMP280;62384;53.600;10.040;2022-09-28T08:25:49;99325.03;;;8.72
74043;BMP280;62384;53.600;10.040;2022-09-28T08:28:22;99286.16;;;8.35
74043;BMP280;62384;53.600;10.040;2022-09-28T08:30:48;99247.41;;;8.11
74043;BMP280;62384;53.600;10.040;2022-09-28T08:33:15;99332.34;;;8.79
74043;BMP280;62384;53.600;10.040;2022-09-28T08:35:42;99359.25;;;9.00
74043;BMP280;62384;53.600;10.040;2022-09-28T08:38:07;99345.13;;;9.03
74043;BMP280;62384;53.600;10.040;2022-09-28T08:40:46;99347.44;;;9.08
74043;BMP280;62384;53.600;10.040;2022-09-28T08:46:03;99355.56;;;9.22
74043;BMP280;62384;53.600;10.040;2022-09-28T08:48:32;99353.25;;;9.21
74043;BMP280;62384;53.600;10.040;2022-09-28T08:51:17;99355.16;;;9.17
74043;BMP280;62384;53.600;10.040;2022-09-28T08:54:12;99362.81;;;9.25
74043;BMP280;62384;53.600;10.040;2022-09-28T08:56:47;99357.41;;;9.11
74043;BMP280;62384;53.600;10.040;2022-09-28T08:59:30;99361.31;;;9.28
74043;BMP280;62384;53.600;10.040;2022-09-28T09:02:01;99385.88;;;9.44
74043;BMP280;62384;53.600;10.040;2022-09-28T09:04:28;99379.66;;;9.26
74043;BMP280;62384;53.600;10.040;2022-09-28T09:07:21;99383.59;;;9.46
74043;BMP280;62384;53.600;10.040;2022-09-28T09:12:49;99404.69;;;9.55
74043;BMP280;62384;53.600;10.040;2022-09-28T09:16:01;99386.72;;;9.62
74043;BMP280;62384;53.600;10.040;2022-09-28T09:23:17;99383.75;;;9.88
74043;BMP280;62384;53.600;10.040;2022-09-28T09:25:48;99401.06;;;10.16
74043;BMP280;62384;53.600;10.040;2022-09-28T09:28:38;99402.22;;;10.29
74043;BMP280;62384;53.600;10.040;2022-09-28T09:42:55;99418.66;;;10.06
74043;BMP280;62384;53.600;10.040;2022-09-28T09:45:47;99431.72;;;10.25
74043;BMP280;62384;53.600;10.040;2022-09-28T09:48:50;99441.34;;;10.97
74043;BMP280;62384;53.600;10.040;2022-09-28T09:51:21;99465.84;;;12.28
74043;BMP280;62384;53.600;10.040;2022-09-28T09:53:56;99478.63;;;13.49
74043;BMP280;62384;53.600;10.040;2022-09-28T09:56:34;99509.47;;;13.82
74043;BMP280;62384;53.600;10.040;2022-09-28T09:59:12;99522.56;;;15.10
74043;BMP280;62384;53.600;10.040;2022-09-28T10:01:40;99541.50;;;16.88
74043;BMP280;62384;53.600;10.040;2022-09-28T10:04:14;99552.34;;;18.50
74043;BMP280;62384;53.600;10.040;2022-09-28T10:06:42;99557.53;;;20.17
74043;BMP280;62384;53.600;10.040;2022-09-28T10:09:33;99557.84;;;19.79
74043;BMP280;62384;53.600;10.040;2022-09-28T10:11:59;99550.69;;;20.70
74043;BMP280;62384;53.600;10.040;2022-09-28T10:14:24;99553.41;;;20.98
74043;BMP280;62384;53.600;10.040;2022-09-28T10:16:51;99547.13;;;21.42
74043;BMP280;62384;53.600;10.040;2022-09-28T10:19:20;99477.50;;;21.38
74043;BMP280;62384;53.600;10.040;2022-09-28T10:21:49;99544.66;;;21.53
74043;BMP280;62384;53.600;10.040;2022-09-28T10:24:29;99548.31;;;22.16
74043;BMP280;62384;53.600;10.040;2022-09-28T10:27:02;99546.44;;;21.74
74043;BMP280;62384;53.600;10.040;2022-09-28T10:29:33;99545.47;;;22.34
74043;BMP280;62384;53.600;10.040;2022-09-28T10:32:16;99558.25;;;22.89
74043;BMP280;62384;53.600;10.040;2022-09-28T10:34:42;99549.31;;;21.71
74043;BMP280;62384;53.600;10.040;2022-09-28T10:37:09;99557.72;;;21.58
74043;BMP280;62384;53.600;10.040;2022-09-28T10:39:36;99550.00;;;21.90
74043;BMP280;62384;53.600;10.040;2022-09-28T10:42:09;99555.25;;;22.49
74043;BMP280;62384;53.600;10.040;2022-09-28T10:44:48;99551.44;;;20.98
74043;BMP280;62384;53.600;10.040;2022-09-28T10:47:17;99557.19;;;20.55
74043;BMP280;62384;53.600;10.040;2022-09-28T10:49:44;99555.22;;;20.55
74043;BMP280;62384;53.600;10.040;2022-09-28T10:52:30;99555.25;;;20.83
74043;BMP280;62384;53.600;10.040;2022-09-28T10:54:56;99544.59;;;20.39
74043;BMP280;62384;53.600;10.040;2022-09-28T10:57:35;99553.88;;;19.71
74043;BMP280;62384;53.600;10.040;2022-09-28T11:00:02;99555.53;;;19.17
74043;BMP280;62384;53.600;10.040;2022-09-28T11:02:31;99516.25;;;19.18
74043;BMP280;62384;53.600;10.040;2022-09-28T11:05:00;99545.88;;;19.03
74043;BMP280;62384;53.600;10.040;2022-09-28T11:07:29;99558.53;;;19.19
74043;BMP280;62384;53.600;10.040;2022-09-28T11:09:56;99475.00;;;17.54
74043;BMP280;62384;53.600;10.040;2022-09-28T11:12:31;99561.63;;;17.61
74043;BMP280;62384;53.600;10.040;2022-09-28T11:15:05;99552.81;;;17.44
74043;BMP280;62384;53.600;10.040;2022-09-28T11:17:36;99550.16;;;16.51
74043;BMP280;62384;53.600;10.040;2022-09-28T11:25:24;99545.84;;;13.97
74043;BMP280;62384;53.600;10.040;2022-09-28T11:33:02;99537.19;;;13.83
74043;BMP280;62384;53.600;10.040;2022-09-28T11:38:27;99532.69;;;13.73
74043;BMP280;62384;53.600;10.040;2022-09-28T11:44:20;99535.34;;;14.33
74043;BMP280;62384;53.600;10.040;2022-09-28T11:52:18;99546.72;;;14.97
74043;BMP280;62384;53.600;10.040;2022-09-28T11:54:51;99532.59;;;14.86
74043;BMP280;62384;53.600;10.040;2022-09-28T11:57:25;99553.03;;;14.37
74043;BMP280;62384;53.600;10.040;2022-09-28T12:00:01;99555.53;;;14.25
74043;BMP280;62384;53.600;10.040;2022-09-28T12:02:38;99555.72;;;14.11
74043;BMP280;62384;53.600;10.040;2022-09-28T12:05:21;99555.69;;;14.41
74043;BMP280;62384;53.600;10.040;2022-09-28T12:07:52;99562.97;;;14.44
74043;BMP280;62384;53.600;10.040;2022-09-28T12:10:34;99556.09;;;14.39
74043;BMP280;62384;53.600;10.040;2022-09-28T12:13:11;99560.44;;;14.60
74043;BMP280;62384;53.600;10.040;2022-09-28T12:16:05;99555.16;;;14.49
74043;BMP280;62384;53.600;10.040;2022-09-28T12:18:40;99554.53;;;14.42
74043;BMP280;62384;53.600;10.040;2022-09-28T12:21:30;99566.56;;;14.64
74043;BMP280;62384;53.600;10.040;2022-09-28T12:24:23;99563.78;;;14.68
74043;BMP280;62384;53.600;10.040;2022-09-28T12:26:58;99573.78;;;14.71
74043;BMP280;62384;53.600;10.040;2022-09-28T12:29:32;99559.13;;;14.45
74043;BMP280;62384;53.600;10.040;2022-09-28T12:32:17;99570.28;;;14.47
74043;BMP280;62384;53.600;10.040;2022-09-28T12:34:46;99565.16;;;14.52
74043;BMP280;62384;53.600;10.040;2022-09-28T12:43:10;99578.25;;;14.54
74043;BMP280;62384;53.600;10.040;2022-09-28T12:46:01;99587.13;;;14.81
74043;BMP280;62384;53.600;10.040;2022-09-28T12:48:53;99578.59;;;14.83
74043;BMP280;62384;53.600;10.040;2022-09-28T12:51:29;99583.06;;;14.93
74043;BMP280;62384;53.600;10.040;2022-09-28T12:54:16;99583.38;;;14.75
74043;BMP280;62384;53.600;10.040;2022-09-28T13:00:04;99584.75;;;14.00
74043;BMP280;62384;53.600;10.040;2022-09-28T13:02:55;99581.34;;;13.96
74043;BMP280;62384;53.600;10.040;2022-09-28T13:05:39;99575.06;;;14.06
74043;BMP280;62384;53.600;10.040;2022-09-28T13:13:55;99582.72;;;14.07
74043;BMP280;62384;53.600;10.040;2022-09-28T13:19:06;99584.09;;;13.92
74043;BMP280;62384;53.600;10.040;2022-09-28T13:21:46;99589.09;;;13.94
74043;BMP280;62384;53.600;10.040;2022-09-28T13:24:19;99582.94;;;13.90
74043;BMP280;62384;53.600;10.040;2022-09-28T13:26:49;99577.34;;;13.73
74043;BMP280;62384;53.600;10.040;2022-09-28T13:29:17;99572.72;;;13.74
74043;BMP280;62384;53.600;10.040;2022-09-28T13:31:46;99569.00;;;13.61
74043;BMP280;62384;53.600;10.040;2022-09-28T13:34:17;99579.59;;;13.82
74043;BMP280;62384;53.600;10.040;2022-09-28T13:36:44;99581.53;;;13.78
74043;BMP280;62384;53.600;10.040;2022-09-28T13:42:08;99534.38;;;13.59
74043;BMP280;62384;53.600;10.040;2022-09-28T13:44:51;99581.41;;;13.89
74043;BMP280;62384;53.600;10.040;2022-09-28T13:50:54;99584.41;;;13.98
74043;BMP280;62384;53.600;10.040;2022-09-28T13:53:49;99588.97;;;14.01
74043;BMP280;62384;53.600;10.040;2022-09-28T13:56:41;99591.28;;;14.02
74043;BMP280;62384;53.600;10.040;2022-09-28T13:59:24;99582.63;;;13.84
74043;BMP280;62384;53.600;10.040;2022-09-28T14:04:56;99583.72;;;13.90
74043;BMP280;62384;53.600;10.040;2022-09-28T14:07:54;99585.13;;;14.02
74043;BMP280;62384;53.600;10.040;2022-09-28T14:10:20;99590.63;;;14.25
74043;BMP280;62384;53.600;10.040;2022-09-28T14:12:50;99587.25;;;14.17
74043;BMP280;62384;53.600;10.040;2022-09-28T14:15:39;99598.06;;;14.14
74043;BMP280;62384;53.600;10.040;2022-09-28T14:18:15;99594.28;;;14.11
74043;BMP280;62384;53.600;10.040;2022-09-28T14:26:40;99597.28;;;14.47
74043;BMP280;62384;53.600;10.040;2022-09-28T14:29:27;99599.91;;;14.50
74043;BMP280;62384;53.600;10.040;2022-09-28T14:32:20;99604.34;;;14.37
74043;BMP280;62384;53.600;10.040;2022-09-28T14:34:47;99606.25;;;14.40
74043;BMP280;62384;53.600;10.040;2022-09-28T14:37:30;99603.53;;;14.40
74043;BMP280;62384;53.600;10.040;2022-09-28T14:40:27;99589.72;;;14.05
74043;BMP280;62384;53.600;10.040;2022-09-28T14:56:21;99608.50;;;14.45
74043;BMP280;62384;53.600;10.040;2022-09-28T14:58:51;99606.00;;;14.28
74043;BMP280;62384;53.600;10.040;2022-09-28T15:01:19;99614.06;;;14.31
74043;BMP280;62384;53.600;10.040;2022-09-28T15:03:50;99616.41;;;14.29
74043;BMP280;62384;53.600;10.040;2022-09-28T15:06:17;99604.16;;;14.21
74043;BMP280;62384;53.600;10.040;2022-09-28T15:08:45;99611.09;;;14.22
74043;BMP280;62384;53.600;10.040;2022-09-28T15:11:14;99608.63;;;14.05
74043;BMP280;62384;53.600;10.040;2022-09-28T15:13:41;99602.09;;;14.02
74043;BMP280;62384;53.600;10.040;2022-09-28T15:16:17;99610.69;;;13.90
74043;BMP280;62384;53.600;10.040;2022-09-28T15:19:01;99590.41;;;13.79
74043;BMP280;62384;53.600;10.040;2022-09-28T15:21:33;99606.91;;;13.84
74043;BMP280;62384;53.600;10.040;2022-09-28T15:23:59;99566.09;;;13.45
74043;BMP280;62384;53.600;10.040;2022-09-28T15:26:29;99622.06;;;13.75
74043;BMP280;62384;53.600;10.040;2022-09-28T15:28:56;99622.38;;;13.77
74043;BMP280;62384;53.600;10.040;2022-09-28T15:31:24;99624.75;;;13.75
74043;BMP280;62384;53.600;10.040;2022-09-28T15:33:50;99624.69;;;13.82
74043;BMP280;62384;53.600;10.040;2022-09-28T15:36:40;99625.53;;;13.71
74043;BMP280;62384;53.600;10.040;2022-09-28T15:39:14;99615.59;;;13.65
74043;BMP280;62384;53.600;10.040;2022-09-28T15:41:44;99614.88;;;13.57
74043;BMP280;62384;53.600;10.040;2022-09-28T15:46:36;99616.00;;;13.60
74043;BMP280;62384;53.600;10.040;2022-09-28T15:49:03;99628.34;;;13.61
74043;BMP280;62384;53.600;10.040;2022-09-28T15:51:31;99629.44;;;13.63
74043;BMP280;62384;53.600;10.040;2022-09-28T15:54:13;99633.31;;;13.69
74043;BMP280;62384;53.600;10.040;2022-09-28T15:56:58;99632.97;;;13.60
74043;BMP280;62384;53.600;10.040;2022-09-28T15:59:34;99631.97;;;13.44
74043;BMP280;62384;53.600;10.040;2022-09-28T16:04:49;99634.75;;;13.33
74043;BMP280;62384;53.600;10.040;2022-09-28T16:15:06;99589.03;;;12.64
74043;BMP280;62384;53.600;10.040;2022-09-28T16:17:35;99628.53;;;12.88
74043;BMP280;62384;53.600;10.040;2022-09-28T16:20:30;99632.03;;;12.82
74043;BMP280;62384;53.600;10.040;2022-09-28T16:23:17;99636.31;;;12.76
74043;BMP280;62384;53.600;10.040;2022-09-28T16:25:55;99628.28;;;12.62
74043;BMP280;62384;53.600;10.040;2022-09-28T16:33:42;99627.22;;;12.45
74043;BMP280;62384;53.600;10.040;2022-09-28T16:36:12;99614.94;;;12.44
74043;BMP280;62384;53.600;10.040;2022-09-28T16:38:38;99623.81;;;12.34
74043;BMP280;62384;53.600;10.040;2022-09-28T16:41:04;99620.75;;;12.29
74043;BMP280;62384;53.600;10.040;2022-09-28T16:43:31;99608.09;;;12.22
74043;BMP280;62384;53.600;10.040;2022-09-28T16:46:06;99603.94;;;12.10
74043;BMP280;62384;53.600;10.040;2022-09-28T16:48:36;99613.53;;;12.11
74043;BMP280;62384;53.600;10.040;2022-09-28T16:51:06;99611.97;;;12.14